createdAt,value
2022-08-04T00:01:47.113Z,15.97
2022-08-04T00:04:41.715Z,15.93
2022-08-04T00:07:19.350Z,15.84
2022-08-04T00:10:10.143Z,15.89
2022-08-04T00:12:45.382Z,15.98
2022-08-04T00:15:18.350Z,15.97
2022-08-04T00:17:54.023Z,15.85
2022-08-04T00:20:30.469Z,15.84
2022-08-04T00:23:01.324Z,15.87
2022-08-04T00:25:31.310Z,15.83
2022-08-04T00:28:02.910Z,15.81
2022-08-04T00:30:32.835Z,15.67
2022-08-04T00:33:03.914Z,15.69
2022-08-04T00:35:35.162Z,15.65
2022-08-04T00:38:05.167Z,15.71
2022-08-04T00:40:50.245Z,15.68
2022-08-04T00:43:31.784Z,15.54
2022-08-04T00:46:40.026Z,15.62
2022-08-04T00:49:50.787Z,15.61
2022-08-04T00:52:45.724Z,15.59
2022-08-04T00:55:57.768Z,15.49
2022-08-04T00:58:53.447Z,15.43
2022-08-04T01:01:45.792Z,15.47
2022-08-04T01:04:25.786Z,15.36
2022-08-04T01:07:16.429Z,15.24
2022-08-04T01:10:05.476Z,15.24
2022-08-04T01:13:09.990Z,15.18
2022-08-04T01:16:00.524Z,15.15
2022-08-04T01:18:54.420Z,15.20
2022-08-04T01:22:01.150Z,15.14
2022-08-04T01:25:02.299Z,15.17
2022-08-04T01:27:57.377Z,15.01
2022-08-04T01:30:29.369Z,14.98
2022-08-04T01:33:05.045Z,14.98
2022-08-04T01:35:48.959Z,14.91
2022-08-04T01:38:26.036Z,14.84
2022-08-04T01:41:00.709Z,14.89
2022-08-04T01:43:33.756Z,14.91
2022-08-04T01:46:06.908Z,14.89
2022-08-04T01:48:39.873Z,14.79
2022-08-04T01:51:10.002Z,14.78
2022-08-04T01:53:41.506Z,14.76
2022-08-04T01:56:12.661Z,14.69
2022-08-04T01:58:42.854Z,14.72
2022-08-04T02:01:15.396Z,14.65
2022-08-04T02:04:21.553Z,14.67
2022-08-04T02:06:50.633Z,14.67
2022-08-04T02:09:27.841Z,14.61
2022-08-04T02:12:15.949Z,14.57
2022-08-04T02:14:57.314Z,14.59
2022-08-04T02:17:35.184Z,14.60
2022-08-04T02:20:10.515Z,14.51
2022-08-04T02:22:54.508Z,14.50
2022-08-04T02:25:28.031Z,14.48
2022-08-04T02:28:23.491Z,14.49
2022-08-04T02:31:09.695Z,14.45
2022-08-04T02:33:43.743Z,14.39
2022-08-04T02:36:22.843Z,14.40
2022-08-04T02:39:01.664Z,14.38
2022-08-04T02:41:32.895Z,14.31
2022-08-04T02:44:05.891Z,14.28
2022-08-04T02:46:38.105Z,14.21
2022-08-04T02:49:10.692Z,14.11
2022-08-04T02:51:42.427Z,14.14
2022-08-04T02:54:12.043Z,14.13
2022-08-04T02:56:42.124Z,14.14
2022-08-04T02:59:14.198Z,14.10
2022-08-04T03:01:57.879Z,14.04
2022-08-04T03:04:52.468Z,13.87
2022-08-04T03:08:21.405Z,13.91
2022-08-04T03:11:49.601Z,13.79
2022-08-04T03:15:12.314Z,13.79
2022-08-04T03:18:29.327Z,13.77
2022-08-04T03:22:18.706Z,13.80
2022-08-04T03:25:57.335Z,13.72
2022-08-04T03:29:35.241Z,13.76
2022-08-04T03:33:01.491Z,13.71
2022-08-04T03:35:58.609Z,13.80
2022-08-04T03:39:10.300Z,13.81
2022-08-04T03:42:14.242Z,13.71
2022-08-04T03:45:39.776Z,13.73
2022-08-04T03:48:50.240Z,13.75
2022-08-04T03:51:55.494Z,13.73
2022-08-04T03:55:16.039Z,13.69
2022-08-04T03:58:18.733Z,13.69
2022-08-04T04:00:59.206Z,13.64
2022-08-04T04:04:04.781Z,13.61
2022-08-04T04:07:09.604Z,13.66
2022-08-04T04:10:29.019Z,13.56
2022-08-04T04:13:51.840Z,13.55
2022-08-04T04:16:45.943Z,13.48
2022-08-04T04:20:10.175Z,13.44
2022-08-04T04:23:01.832Z,13.46
2022-08-04T04:25:43.696Z,13.26
2022-08-04T04:28:51.438Z,13.45
2022-08-04T04:31:58.851Z,13.42
2022-08-04T04:34:46.093Z,13.50
2022-08-04T04:37:31.233Z,13.46
2022-08-04T04:40:21.055Z,13.48
2022-08-04T04:43:12.857Z,13.37
2022-08-04T04:45:55.318Z,13.36
2022-08-04T04:48:38.696Z,13.36
2022-08-04T04:51:24.613Z,13.34
2022-08-04T04:54:06.294Z,13.35
2022-08-04T04:56:45.150Z,13.23
2022-08-04T04:59:20.239Z,13.38
2022-08-04T05:02:33.898Z,13.37
2022-08-04T05:06:00.466Z,13.33
2022-08-04T05:08:54.964Z,13.37
2022-08-04T05:11:57.121Z,13.30
2022-08-04T05:14:40.944Z,13.16
2022-08-04T05:17:23.389Z,13.27
2022-08-04T05:20:02.010Z,13.18
2022-08-04T05:22:38.895Z,13.14
2022-08-04T05:25:22.516Z,13.19
2022-08-04T05:27:58.837Z,13.02
2022-08-04T05:30:30.153Z,13.08
2022-08-04T05:33:05.643Z,13.14
2022-08-04T05:36:17.950Z,13.14
2022-08-04T05:38:39.822Z,13.13
2022-08-04T05:41:11.677Z,13.08
2022-08-04T05:43:45.074Z,13.08
2022-08-04T05:46:17.296Z,13.07
2022-08-04T05:48:49.914Z,13.23
2022-08-04T05:51:20.455Z,13.16
2022-08-04T05:53:51.185Z,13.17
2022-08-04T05:56:20.785Z,13.18
2022-08-04T05:58:51.019Z,13.26
2022-08-04T06:01:25.612Z,13.29
2022-08-04T06:03:58.226Z,13.32
2022-08-04T06:06:28.127Z,13.34
2022-08-04T06:08:58.889Z,13.36
2022-08-04T06:11:30.415Z,13.47
2022-08-04T06:14:06.527Z,13.47
2022-08-04T06:16:42.524Z,13.46
2022-08-04T06:20:03.799Z,13.38
2022-08-04T06:22:07.948Z,13.50
2022-08-04T06:24:39.965Z,13.53
2022-08-04T06:27:10.341Z,13.53
2022-08-04T06:29:51.349Z,13.62
2022-08-04T06:32:41.267Z,13.65
2022-08-04T06:35:13.059Z,13.82
2022-08-04T06:37:44.354Z,13.91
2022-08-04T06:40:31.481Z,13.94
2022-08-04T06:43:07.694Z,13.94
2022-08-04T06:45:53.048Z,13.91
2022-08-04T06:48:33.270Z,14.08
2022-08-04T06:51:27.573Z,14.15
2022-08-04T06:53:54.792Z,14.17
2022-08-04T06:56:25.275Z,14.24
2022-08-04T06:58:56.471Z,14.31
2022-08-04T07:01:28.140Z,14.37
2022-08-04T07:03:57.673Z,14.44
2022-08-04T07:06:28.512Z,14.58
2022-08-04T07:08:58.009Z,14.73
2022-08-04T07:11:28.659Z,14.77
2022-08-04T07:14:08.764Z,14.86
2022-08-04T07:16:38.289Z,15.05
2022-08-04T07:19:10.561Z,15.03
2022-08-04T07:22:17.726Z,15.21
2022-08-04T07:24:32.697Z,15.29
2022-08-04T07:27:02.668Z,15.35
2022-08-04T07:29:32.705Z,15.42
2022-08-04T07:32:02.892Z,15.59
2022-08-04T07:34:32.951Z,15.74
2022-08-04T07:37:05.965Z,15.86
2022-08-04T07:39:48.185Z,16.04
2022-08-04T07:42:21.471Z,16.21
2022-08-04T07:44:50.693Z,16.57
2022-08-04T07:47:25.314Z,16.80
2022-08-04T07:49:57.603Z,17.10
2022-08-04T07:52:30.288Z,17.55
2022-08-04T07:55:00.378Z,17.84
2022-08-04T07:57:41.530Z,17.95
2022-08-04T08:00:15.010Z,18.08
2022-08-04T08:02:46.957Z,18.44
2022-08-04T08:05:19.394Z,18.39
2022-08-04T08:07:54.299Z,18.70
2022-08-04T08:10:25.044Z,18.97
2022-08-04T08:12:55.372Z,19.19
2022-08-04T08:15:25.443Z,19.25
2022-08-04T08:17:57.989Z,19.49
2022-08-04T08:20:30.707Z,19.53
2022-08-04T08:23:03.753Z,19.63
2022-08-04T08:25:34.687Z,19.52
2022-08-04T08:28:06.131Z,19.63
2022-08-04T08:30:36.429Z,19.58
2022-08-04T08:33:09.193Z,19.55
2022-08-04T08:35:54.830Z,19.89
2022-08-04T08:38:40.313Z,20.03
2022-08-04T08:41:54.343Z,20.16
2022-08-04T08:45:12.371Z,20.18
2022-08-04T08:48:17.760Z,20.20
2022-08-04T08:51:52.127Z,20.19
2022-08-04T08:54:55.953Z,19.93
2022-08-04T08:58:00.039Z,20.16
2022-08-04T09:00:43.217Z,20.16
2022-08-04T09:03:47.339Z,20.39
2022-08-04T09:06:47.966Z,20.45
2022-08-04T09:09:42.163Z,20.63
2022-08-04T09:12:25.764Z,20.89
2022-08-04T09:15:04.565Z,20.76
2022-08-04T09:17:43.189Z,20.68
2022-08-04T09:20:23.026Z,20.67
2022-08-04T09:23:01.792Z,20.59
2022-08-04T09:25:40.170Z,20.37
2022-08-04T09:28:51.725Z,20.47
2022-08-04T09:31:21.079Z,20.95
2022-08-04T09:34:00.387Z,21.16
2022-08-04T09:36:40.780Z,21.58
2022-08-04T09:39:23.951Z,21.87
2022-08-04T09:42:05.561Z,21.95
2022-08-04T09:44:57.504Z,21.73
2022-08-04T09:47:40.758Z,21.78
2022-08-04T09:50:26.711Z,21.41
2022-08-04T09:53:08.096Z,21.27
2022-08-04T09:55:53.258Z,21.32
2022-08-04T09:58:42.072Z,21.81
2022-08-04T10:01:23.161Z,22.28
2022-08-04T10:03:57.729Z,22.41
2022-08-04T10:07:03.992Z,22.67
2022-08-04T10:09:49.233Z,22.74
2022-08-04T10:12:59.292Z,23.24
2022-08-04T10:15:36.329Z,23.67
2022-08-04T10:18:28.909Z,24.03
2022-08-04T10:21:11.710Z,24.27
2022-08-04T10:24:08.826Z,24.16
2022-08-04T10:26:53.220Z,23.76
2022-08-04T10:29:32.179Z,23.32
2022-08-04T10:32:13.403Z,23.55
2022-08-04T10:35:01.170Z,23.52
2022-08-04T10:37:53.275Z,22.77
2022-08-04T10:40:43.432Z,22.85
2022-08-04T10:43:26.987Z,23.35
2022-08-04T10:46:03.229Z,23.75
2022-08-04T10:48:45.835Z,24.19
2022-08-04T10:51:27.067Z,23.87
2022-08-04T10:54:03.720Z,23.75
2022-08-04T10:56:41.938Z,22.99
2022-08-04T10:59:21.556Z,22.39
2022-08-04T11:02:01.438Z,22.54
2022-08-04T11:04:39.345Z,22.95
2022-08-04T11:07:11.770Z,23.61
2022-08-04T11:09:44.247Z,23.84
2022-08-04T11:12:20.888Z,23.78
2022-08-04T11:14:57.297Z,23.84
2022-08-04T11:17:33.673Z,24.22
2022-08-04T11:20:35.362Z,23.49
2022-08-04T11:23:13.615Z,23.38
2022-08-04T11:25:54.189Z,23.57
2022-08-04T11:28:35.152Z,23.77
2022-08-04T11:31:09.243Z,23.24
2022-08-04T11:33:51.286Z,23.76
2022-08-04T11:36:32.182Z,24.21
2022-08-04T11:39:14.193Z,24.91
2022-08-04T11:41:52.791Z,24.94
2022-08-04T11:44:31.542Z,25.29
2022-08-04T11:47:06.335Z,25.49
2022-08-04T11:49:56.837Z,25.58
2022-08-04T11:52:30.048Z,25.61
2022-08-04T11:55:05.121Z,25.21
2022-08-04T11:57:36.718Z,25.62
2022-08-04T12:00:13.857Z,25.87
2022-08-04T12:03:28.450Z,25.37
2022-08-04T12:06:16.752Z,24.47
2022-08-04T12:09:04.077Z,24.12
2022-08-04T12:11:52.849Z,23.59
2022-08-04T12:14:35.498Z,22.87
2022-08-04T12:17:07.207Z,22.62
2022-08-04T12:20:03.406Z,22.18
2022-08-04T12:22:40.988Z,22.22
2022-08-04T12:25:15.324Z,21.85
2022-08-04T12:27:52.778Z,21.78
2022-08-04T12:30:59.688Z,22.11
2022-08-04T12:33:22.575Z,22.75
2022-08-04T12:36:11.293Z,23.00
2022-08-04T12:38:49.644Z,23.13
2022-08-04T12:41:25.935Z,23.18
2022-08-04T12:43:56.764Z,22.88
2022-08-04T12:46:30.151Z,22.86
2022-08-04T12:49:06.067Z,23.32
2022-08-04T12:52:07.400Z,24.41
2022-08-04T12:54:37.353Z,25.24
2022-08-04T12:57:09.246Z,25.75
2022-08-04T12:59:44.970Z,25.92
2022-08-04T13:02:25.203Z,25.74
2022-08-04T13:04:56.563Z,26.02
2022-08-04T13:07:44.028Z,26.21
2022-08-04T13:10:14.914Z,25.79
2022-08-04T13:12:59.500Z,25.05
2022-08-04T13:18:27.357Z,24.05
2022-08-04T13:21:19.645Z,24.07
2022-08-04T13:24:19.814Z,23.60
2022-08-04T13:26:56.976Z,23.59
2022-08-04T13:29:59.932Z,23.82
2022-08-04T13:30:24.010Z,24.68
2022-08-04T13:32:32.910Z,23.63
2022-08-04T13:35:04.770Z,23.98
2022-08-04T13:37:37.126Z,24.19
2022-08-04T13:40:10.773Z,24.24
2022-08-04T13:42:42.093Z,24.08
2022-08-04T13:45:13.178Z,24.18
2022-08-04T13:47:45.124Z,23.97
2022-08-04T13:50:23.589Z,23.75
2022-08-04T13:52:56.349Z,24.12
2022-08-04T13:55:30.926Z,24.41
2022-08-04T13:58:10.985Z,24.81
2022-08-04T14:00:49.235Z,24.87
2022-08-04T14:03:31.754Z,24.93
2022-08-04T14:06:16.605Z,25.61
2022-08-04T14:08:51.358Z,26.10
2022-08-04T14:12:09.482Z,26.34
2022-08-04T14:14:23.177Z,26.25
2022-08-04T14:17:02.413Z,26.22
2022-08-04T14:19:53.541Z,25.43
2022-08-04T14:22:38.809Z,25.34
2022-08-04T14:25:16.072Z,25.09
2022-08-04T14:27:49.421Z,24.41
2022-08-04T14:30:31.317Z,24.75
2022-08-04T14:34:01.758Z,24.71
2022-08-04T14:36:04.713Z,25.06
2022-08-04T14:38:53.706Z,25.34
2022-08-04T14:41:27.028Z,25.11
2022-08-04T14:43:59.794Z,25.07
2022-08-04T14:46:35.145Z,25.52
2022-08-04T14:49:13.030Z,25.93
2022-08-04T14:51:46.310Z,25.98
2022-08-04T14:54:18.818Z,25.54
2022-08-04T14:56:58.008Z,24.84
2022-08-04T14:59:27.606Z,24.25
2022-08-04T15:02:00.351Z,24.08
2022-08-04T15:04:32.522Z,23.59
2022-08-04T15:07:04.496Z,22.96
2022-08-04T15:09:34.393Z,22.83
2022-08-04T15:12:05.573Z,22.75
2022-08-04T15:14:38.238Z,22.75
2022-08-04T15:17:29.018Z,22.55
2022-08-04T15:19:58.824Z,22.49
2022-08-04T15:22:29.849Z,22.59
2022-08-04T15:24:59.297Z,22.52
2022-08-04T15:27:35.186Z,22.67
2022-08-04T15:30:07.821Z,22.96
2022-08-04T15:32:40.373Z,23.32
2022-08-04T15:35:14.602Z,23.68
2022-08-04T15:38:00.641Z,23.90
2022-08-04T15:40:40.131Z,24.08
2022-08-04T15:43:25.303Z,24.19
2022-08-04T15:46:40.965Z,24.43
2022-08-04T15:48:47.802Z,24.72
2022-08-04T15:51:32.067Z,24.61
2022-08-04T15:54:30.683Z,24.37
2022-08-04T15:57:03.701Z,24.35
2022-08-04T16:00:02.797Z,24.34
2022-08-04T16:02:47.741Z,24.46
2022-08-04T16:05:39.402Z,24.52
2022-08-04T16:08:20.104Z,24.59
2022-08-04T16:10:51.860Z,24.50
2022-08-04T16:13:23.802Z,24.61
2022-08-04T16:16:03.324Z,24.31
2022-08-04T16:18:44.068Z,24.20
2022-08-04T16:21:24.638Z,23.36
2022-08-04T16:24:21.744Z,22.99
2022-08-04T16:27:03.243Z,22.47
2022-08-04T16:29:39.864Z,21.94
2022-08-04T16:32:22.196Z,22.11
2022-08-04T16:34:59.998Z,22.14
2022-08-04T16:37:38.908Z,22.19
2022-08-04T16:40:37.522Z,22.04
2022-08-04T16:43:11.687Z,22.03
2022-08-04T16:45:54.090Z,21.81
2022-08-04T16:48:28.064Z,21.65
2022-08-04T16:51:05.599Z,21.62
2022-08-04T16:53:53.539Z,21.50
2022-08-04T16:56:39.230Z,21.20
2022-08-04T16:59:14.251Z,21.43
2022-08-04T17:01:53.428Z,21.47
2022-08-04T17:04:32.245Z,21.39
2022-08-04T17:07:07.043Z,21.57
2022-08-04T17:09:43.501Z,21.55
2022-08-04T17:12:12.918Z,21.36
2022-08-04T17:14:48.172Z,20.93
2022-08-04T17:18:04.044Z,21.46
2022-08-04T17:20:15.919Z,21.53
2022-08-04T17:22:45.533Z,21.61
2022-08-04T17:25:14.927Z,21.81
2022-08-04T17:28:19.081Z,21.87
2022-08-04T17:30:35.770Z,22.10
2022-08-04T17:33:05.424Z,22.36
2022-08-04T17:35:44.837Z,22.15
2022-08-04T17:38:18.609Z,22.19
2022-08-04T17:40:58.810Z,22.03
2022-08-04T17:44:04.678Z,21.76
2022-08-04T17:46:41.569Z,21.52
2022-08-04T17:49:22.380Z,21.32
2022-08-04T17:54:46.163Z,21.01
2022-08-04T17:57:19.967Z,21.05
2022-08-04T17:59:58.106Z,20.98
2022-08-04T18:02:35.087Z,20.95
2022-08-04T18:05:11.240Z,21.16
2022-08-04T18:08:39.003Z,21.31
2022-08-04T18:10:51.722Z,21.56
2022-08-04T18:13:27.388Z,21.52
2022-08-04T18:16:04.071Z,21.46
2022-08-04T18:18:38.442Z,21.52
2022-08-04T18:21:08.034Z,21.53
2022-08-04T18:23:50.397Z,21.37
2022-08-04T18:26:23.597Z,21.35
2022-08-04T18:28:53.694Z,21.46
2022-08-04T18:31:23.000Z,21.31
2022-08-04T18:33:57.100Z,21.48
2022-08-04T18:36:33.659Z,21.55
2022-08-04T18:39:13.480Z,21.39
2022-08-04T18:42:01.353Z,21.34
2022-08-04T18:44:32.917Z,21.14
2022-08-04T18:47:23.464Z,21.14
2022-08-04T18:50:58.643Z,20.90
2022-08-04T18:52:45.845Z,20.72
2022-08-04T18:58:11.626Z,20.56
2022-08-04T19:00:45.503Z,20.44
2022-08-04T19:03:16.529Z,20.40
2022-08-04T19:05:54.915Z,20.44
2022-08-04T19:08:34.463Z,20.30
2022-08-04T19:11:38.518Z,20.41
2022-08-04T19:13:58.886Z,20.43
2022-08-04T19:16:29.938Z,20.45
2022-08-04T19:19:00.511Z,20.60
2022-08-04T19:21:59.321Z,20.56
2022-08-04T19:24:32.538Z,20.49
2022-08-04T19:27:08.429Z,20.30
2022-08-04T19:32:29.936Z,20.05
2022-08-04T19:35:00.450Z,20.11
2022-08-04T19:37:56.679Z,19.80
2022-08-04T19:40:33.630Z,19.86
2022-08-04T19:43:14.448Z,19.85
2022-08-04T19:45:45.892Z,19.94
2022-08-04T19:48:19.395Z,19.87
2022-08-04T19:50:50.167Z,19.81
2022-08-04T19:53:37.107Z,19.62
2022-08-04T19:56:07.775Z,19.71
2022-08-04T19:58:38.677Z,19.73
2022-08-04T20:01:28.652Z,19.74
2022-08-04T20:04:08.839Z,19.70
2022-08-04T20:06:40.810Z,19.55
2022-08-04T20:09:24.978Z,19.48
2022-08-04T20:11:56.799Z,19.35
2022-08-04T20:14:32.612Z,19.06
2022-08-04T20:17:17.969Z,19.00
2022-08-04T20:19:51.250Z,18.92
2022-08-04T20:22:50.469Z,18.82
2022-08-04T20:25:35.559Z,18.88
2022-08-04T20:28:02.622Z,18.68
2022-08-04T20:30:33.467Z,18.45
2022-08-04T20:33:04.257Z,18.55
2022-08-04T20:36:03.246Z,18.42
2022-08-04T20:38:33.125Z,18.52
2022-08-04T20:41:05.199Z,18.38
2022-08-04T20:43:35.057Z,18.51
2022-08-04T20:46:18.635Z,18.41
2022-08-04T20:48:59.944Z,18.29
2022-08-04T20:51:33.776Z,18.36
2022-08-04T20:54:16.506Z,18.41
2022-08-04T20:56:51.003Z,18.28
2022-08-04T20:59:21.151Z,18.13
2022-08-04T21:01:53.840Z,18.26
2022-08-04T21:04:33.123Z,18.12
2022-08-04T21:07:05.973Z,18.30
2022-08-04T21:09:37.475Z,18.33
2022-08-04T21:12:28.586Z,18.25
2022-08-04T21:15:13.155Z,18.12
2022-08-04T21:17:58.589Z,18.20
2022-08-04T21:20:36.144Z,18.17
2022-08-04T21:23:09.202Z,18.09
2022-08-04T21:25:42.873Z,18.00
2022-08-04T21:28:20.481Z,17.88
2022-08-04T21:30:54.126Z,17.71
2022-08-04T21:33:49.025Z,17.73
2022-08-04T21:36:19.576Z,17.79
2022-08-04T21:38:51.190Z,17.47
2022-08-04T21:41:25.177Z,17.68
2022-08-04T21:43:58.628Z,17.70
2022-08-04T21:46:31.481Z,17.64
2022-08-04T21:49:01.165Z,17.65
2022-08-04T21:51:58.772Z,17.41
2022-08-04T21:54:25.052Z,17.53
2022-08-04T21:56:54.446Z,17.51
2022-08-04T21:59:30.637Z,17.47
2022-08-04T22:02:02.221Z,17.36
2022-08-04T22:04:32.015Z,17.20
2022-08-04T22:07:03.114Z,17.24
2022-08-04T22:09:40.931Z,17.36
2022-08-04T22:12:12.410Z,17.33
2022-08-04T22:14:43.350Z,17.41
2022-08-04T22:17:19.981Z,17.31
2022-08-04T22:19:56.158Z,17.16
2022-08-04T22:28:03.768Z,17.22
2022-08-04T22:30:37.562Z,17.25
2022-08-04T22:33:09.893Z,17.17
2022-08-04T22:35:48.770Z,17.16
2022-08-04T22:38:42.043Z,17.19
2022-08-04T22:41:18.038Z,17.15
2022-08-04T22:43:54.906Z,17.01
2022-08-04T22:46:30.250Z,17.01
2022-08-04T22:48:59.671Z,16.98
2022-08-04T22:51:39.393Z,16.91
2022-08-04T22:54:19.213Z,16.91
2022-08-04T22:56:48.846Z,16.73
2022-08-04T22:59:22.184Z,16.71
2022-08-04T23:02:00.820Z,16.77
2022-08-04T23:04:37.165Z,16.76
2022-08-04T23:07:09.751Z,16.67
2022-08-04T23:09:50.311Z,16.44
2022-08-04T23:12:25.089Z,16.57
2022-08-04T23:14:56.646Z,16.60
2022-08-04T23:17:34.021Z,16.53
2022-08-04T23:20:23.559Z,16.37
2022-08-04T23:23:14.625Z,16.18
2022-08-04T23:26:07.183Z,16.28
2022-08-04T23:28:36.254Z,16.40
2022-08-04T23:31:05.917Z,16.36
2022-08-04T23:33:49.441Z,16.31
2022-08-04T23:36:29.535Z,15.93
2022-08-04T23:39:06.422Z,16.15
2022-08-04T23:41:54.177Z,16.08
2022-08-04T23:44:27.208Z,15.87
2022-08-04T23:47:01.642Z,16.04
2022-08-04T23:49:43.709Z,15.93
2022-08-04T23:52:27.699Z,15.93
2022-08-04T23:55:03.486Z,15.73
2022-08-04T23:58:16.815Z,15.78
